sensor_id;sensor_type;location;lat;lon;timestamp;temperature;humidity
37956;DHT22;23776;51.592;7.180;2023-03-03T00:02:20;3.00;1.00
37956;DHT22;23776;51.592;7.180;2023-03-03T00:04:46;5.10;1.00
37956;DHT22;23776;51.592;7.180;2023-03-03T00:07:12;3.70;1.00
37956;DHT22;23776;51.592;7.180;2023-03-03T00:09:39;2.90;1.00
37956;DHT22;23776;51.592;7.180;2023-03-03T00:12:24;2.80;1.00
37956;DHT22;23776;51.592;7.180;2023-03-03T00:14:50;2.80;1.00
37956;DHT22;23776;51.592;7.180;2023-03-03T00:17:33;2.80;1.00
37956;DHT22;23776;51.592;7.180;2023-03-03T00:19:59;2.90;1.00
37956;DHT22;23776;51.592;7.180;2023-03-03T00:22:36;2.90;1.00
37956;DHT22;23776;51.592;7.180;2023-03-03T00:27:49;2.90;1.00
37956;DHT22;23776;51.592;7.180;2023-03-03T00:30:32;2.90;1.00
37956;DHT22;23776;51.592;7.180;2023-03-03T00:32:58;2.90;1.00
37956;DHT22;23776;51.592;7.180;2023-03-03T00:35:31;2.90;1.00
37956;DHT22;23776;51.592;7.180;2023-03-03T00:38:33;2.80;1.00
37956;DHT22;23776;51.592;7.180;2023-03-03T00:40:59;2.70;1.00
37956;DHT22;23776;51.592;7.180;2023-03-03T00:43:33;2.70;1.00
37956;DHT22;23776;51.592;7.180;2023-03-03T00:46:00;2.70;1.00
37956;DHT22;23776;51.592;7.180;2023-03-03T00:51:05;2.80;1.00
37956;DHT22;23776;51.592;7.180;2023-03-03T00:53:35;2.80;1.00
37956;DHT22;23776;51.592;7.180;2023-03-03T00:56:00;2.80;1.00
37956;DHT22;23776;51.592;7.180;2023-03-03T00:58:26;2.80;1.00
37956;DHT22;23776;51.592;7.180;2023-03-03T01:00:54;2.80;1.00
37956;DHT22;23776;51.592;7.180;2023-03-03T01:03:22;1.30;1.00
37956;DHT22;23776;51.592;7.180;2023-03-03T01:05:49;2.80;1.00
37956;DHT22;23776;51.592;7.180;2023-03-03T01:08:16;2.90;1.00
37956;DHT22;23776;51.592;7.180;2023-03-03T01:10:45;2.80;1.00
37956;DHT22;23776;51.592;7.180;2023-03-03T01:13:15;2.80;1.00
37956;DHT22;23776;51.592;7.180;2023-03-03T01:15:41;2.80;1.00
37956;DHT22;23776;51.592;7.180;2023-03-03T01:18:09;2.70;1.00
37956;DHT22;23776;51.592;7.180;2023-03-03T01:20:36;2.70;1.00
37956;DHT22;23776;51.592;7.180;2023-03-03T01:23:01;2.70;1.00
37956;DHT22;23776;51.592;7.180;2023-03-03T01:25:27;2.60;1.00
37956;DHT22;23776;51.592;7.180;2023-03-03T01:27:53;2.70;1.00
37956;DHT22;23776;51.592;7.180;2023-03-03T01:30:19;2.60;1.00
37956;DHT22;23776;51.592;7.180;2023-03-03T01:32:45;2.70;1.00
37956;DHT22;23776;51.592;7.180;2023-03-03T01:35:11;2.70;1.00
37956;DHT22;23776;51.592;7.180;2023-03-03T01:37:36;2.70;1.00
37956;DHT22;23776;51.592;7.180;2023-03-03T01:40:04;2.60;1.00
37956;DHT22;23776;51.592;7.180;2023-03-03T01:42:32;2.70;1.00
37956;DHT22;23776;51.592;7.180;2023-03-03T01:47:46;2.90;1.00
37956;DHT22;23776;51.592;7.180;2023-03-03T01:50:25;2.90;1.00
37956;DHT22;23776;51.592;7.180;2023-03-03T01:52:51;2.80;1.00
37956;DHT22;23776;51.592;7.180;2023-03-03T01:55:22;2.90;1.00
37956;DHT22;23776;51.592;7.180;2023-03-03T01:57:58;2.80;1.00
37956;DHT22;23776;51.592;7.180;2023-03-03T02:00:26;2.80;1.00
37956;DHT22;23776;51.592;7.180;2023-03-03T02:02:53;2.80;1.00
37956;DHT22;23776;51.592;7.180;2023-03-03T02:05:19;2.70;1.00
37956;DHT22;23776;51.592;7.180;2023-03-03T02:07:45;2.70;1.00
37956;DHT22;23776;51.592;7.180;2023-03-03T02:10:14;2.60;1.00
37956;DHT22;23776;51.592;7.180;2023-03-03T02:12:52;2.70;1.00
37956;DHT22;23776;51.592;7.180;2023-03-03T02:17:56;2.70;1.00
37956;DHT22;23776;51.592;7.180;2023-03-03T02:20:45;2.70;1.00
37956;DHT22;23776;51.592;7.180;2023-03-03T02:23:30;2.80;1.00
37956;DHT22;23776;51.592;7.180;2023-03-03T02:28:34;2.80;1.00
37956;DHT22;23776;51.592;7.180;2023-03-03T02:31:00;2.90;1.00
37956;DHT22;23776;51.592;7.180;2023-03-03T02:33:27;2.80;1.00
37956;DHT22;23776;51.592;7.180;2023-03-03T02:35:54;2.80;1.00
37956;DHT22;23776;51.592;7.180;2023-03-03T02:46:23;2.80;1.00
37956;DHT22;23776;51.592;7.180;2023-03-03T02:48:49;2.70;1.00
37956;DHT22;23776;51.592;7.180;2023-03-03T02:51:14;2.60;1.00
37956;DHT22;23776;51.592;7.180;2023-03-03T02:56:07;2.60;1.00
37956;DHT22;23776;51.592;7.180;2023-03-03T02:58:34;2.50;1.00
37956;DHT22;23776;51.592;7.180;2023-03-03T03:01:00;2.70;1.00
37956;DHT22;23776;51.592;7.180;2023-03-03T03:03:25;2.70;1.00
37956;DHT22;23776;51.592;7.180;2023-03-03T03:05:51;2.60;1.00
37956;DHT22;23776;51.592;7.180;2023-03-03T03:08:17;2.60;1.00
37956;DHT22;23776;51.592;7.180;2023-03-03T03:10:42;2.50;1.00
37956;DHT22;23776;51.592;7.180;2023-03-03T03:13:09;2.50;1.00
37956;DHT22;23776;51.592;7.180;2023-03-03T03:15:35;4.90;1.00
37956;DHT22;23776;51.592;7.180;2023-03-03T03:18:01;2.50;1.00
37956;DHT22;23776;51.592;7.180;2023-03-03T03:20:26;2.50;1.00
37956;DHT22;23776;51.592;7.180;2023-03-03T03:22:52;2.50;1.00
37956;DHT22;23776;51.592;7.180;2023-03-03T03:25:17;2.50;1.00
37956;DHT22;23776;51.592;7.180;2023-03-03T03:27:43;2.50;1.00
37956;DHT22;23776;51.592;7.180;2023-03-03T03:30:09;2.50;1.00
37956;DHT22;23776;51.592;7.180;2023-03-03T03:32:35;2.50;1.00
37956;DHT22;23776;51.592;7.180;2023-03-03T03:35:01;2.40;1.00
37956;DHT22;23776;51.592;7.180;2023-03-03T03:37:26;2.40;1.00
37956;DHT22;23776;51.592;7.180;2023-03-03T03:39:52;-1.10;1.00
37956;DHT22;23776;51.592;7.180;2023-03-03T03:42:18;2.20;1.00
37956;DHT22;23776;51.592;7.180;2023-03-03T03:44:44;2.20;1.00
37956;DHT22;23776;51.592;7.180;2023-03-03T03:47:09;2.10;1.00
37956;DHT22;23776;51.592;7.180;2023-03-03T03:49:35;2.10;1.00
37956;DHT22;23776;51.592;7.180;2023-03-03T03:52:00;2.10;1.00
37956;DHT22;23776;51.592;7.180;2023-03-03T03:54:26;1.80;1.00
37956;DHT22;23776;51.592;7.180;2023-03-03T03:56:52;2.10;1.00
37956;DHT22;23776;51.592;7.180;2023-03-03T03:59:19;2.10;1.00
37956;DHT22;23776;51.592;7.180;2023-03-03T04:01:45;2.10;1.00
37956;DHT22;23776;51.592;7.180;2023-03-03T04:04:12;2.10;1.00
37956;DHT22;23776;51.592;7.180;2023-03-03T04:06:38;2.10;1.00
37956;DHT22;23776;51.592;7.180;2023-03-03T04:09:04;2.00;1.00
37956;DHT22;23776;51.592;7.180;2023-03-03T04:11:30;2.10;1.00
37956;DHT22;23776;51.592;7.180;2023-03-03T04:13:55;2.10;1.00
37956;DHT22;23776;51.592;7.180;2023-03-03T04:16:21;2.10;1.00
37956;DHT22;23776;51.592;7.180;2023-03-03T04:18:46;2.10;1.00
37956;DHT22;23776;51.592;7.180;2023-03-03T04:21:13;2.20;1.00
37956;DHT22;23776;51.592;7.180;2023-03-03T04:26:05;2.10;1.00
37956;DHT22;23776;51.592;7.180;2023-03-03T04:28:31;2.10;1.00
37956;DHT22;23776;51.592;7.180;2023-03-03T04:30:57;2.10;1.00
37956;DHT22;23776;51.592;7.180;2023-03-03T04:33:22;2.00;1.00
37956;DHT22;23776;51.592;7.180;2023-03-03T04:38:14;2.20;1.00
37956;DHT22;23776;51.592;7.180;2023-03-03T04:40:40;2.10;1.00
37956;DHT22;23776;51.592;7.180;2023-03-03T04:43:06;2.30;1.00
37956;DHT22;23776;51.592;7.180;2023-03-03T04:45:32;-0.40;1.00
37956;DHT22;23776;51.592;7.180;2023-03-03T04:47:57;2.40;1.00
37956;DHT22;23776;51.592;7.180;2023-03-03T04:50:23;2.30;1.00
37956;DHT22;23776;51.592;7.180;2023-03-03T04:52:49;2.20;1.00
37956;DHT22;23776;51.592;7.180;2023-03-03T04:55:14;2.20;1.00
37956;DHT22;23776;51.592;7.180;2023-03-03T04:57:41;2.10;1.00
37956;DHT22;23776;51.592;7.180;2023-03-03T05:00:08;2.20;1.00
37956;DHT22;23776;51.592;7.180;2023-03-03T05:02:34;2.10;1.00
37956;DHT22;23776;51.592;7.180;2023-03-03T05:07:25;2.20;1.00
37956;DHT22;23776;51.592;7.180;2023-03-03T05:09:51;2.20;1.00
37956;DHT22;23776;51.592;7.180;2023-03-03T05:12:17;2.10;1.00
37956;DHT22;23776;51.592;7.180;2023-03-03T05:14:42;2.10;1.00
37956;DHT22;23776;51.592;7.180;2023-03-03T05:17:08;2.20;1.00
37956;DHT22;23776;51.592;7.180;2023-03-03T05:19:33;2.20;1.00
37956;DHT22;23776;51.592;7.180;2023-03-03T05:21:59;2.20;1.00
37956;DHT22;23776;51.592;7.180;2023-03-03T05:24:26;2.20;1.00
37956;DHT22;23776;51.592;7.180;2023-03-03T05:26:52;2.30;1.00
37956;DHT22;23776;51.592;7.180;2023-03-03T05:31:44;2.30;1.00
37956;DHT22;23776;51.592;7.180;2023-03-03T05:34:10;2.40;1.00
37956;DHT22;23776;51.592;7.180;2023-03-03T05:36:35;2.40;1.00
37956;DHT22;23776;51.592;7.180;2023-03-03T05:39:01;2.30;1.00
37956;DHT22;23776;51.592;7.180;2023-03-03T05:41:26;2.30;1.00
37956;DHT22;23776;51.592;7.180;2023-03-03T05:43:52;2.20;1.00
37956;DHT22;23776;51.592;7.180;2023-03-03T05:46:19;2.20;1.00
37956;DHT22;23776;51.592;7.180;2023-03-03T05:48:44;2.20;1.00
37956;DHT22;23776;51.592;7.180;2023-03-03T05:51:10;2.20;1.00
37956;DHT22;23776;51.592;7.180;2023-03-03T05:53:36;2.30;1.00
37956;DHT22;23776;51.592;7.180;2023-03-03T05:56:02;2.30;1.00
37956;DHT22;23776;51.592;7.180;2023-03-03T05:58:27;2.20;1.00
37956;DHT22;23776;51.592;7.180;2023-03-03T06:00:53;2.30;1.00
37956;DHT22;23776;51.592;7.180;2023-03-03T06:03:19;2.20;1.00
37956;DHT22;23776;51.592;7.180;2023-03-03T06:05:45;2.20;1.00
37956;DHT22;23776;51.592;7.180;2023-03-03T06:08:10;2.20;1.00
37956;DHT22;23776;51.592;7.180;2023-03-03T06:10:36;2.10;1.00
37956;DHT22;23776;51.592;7.180;2023-03-03T06:13:02;2.20;1.00
37956;DHT22;23776;51.592;7.180;2023-03-03T06:15:27;2.20;1.00
37956;DHT22;23776;51.592;7.180;2023-03-03T06:17:53;2.10;1.00
37956;DHT22;23776;51.592;7.180;2023-03-03T06:20:19;2.10;1.00
37956;DHT22;23776;51.592;7.180;2023-03-03T06:22:44;2.10;1.00
37956;DHT22;23776;51.592;7.180;2023-03-03T06:25:10;2.10;1.00
37956;DHT22;23776;51.592;7.180;2023-03-03T06:27:36;2.10;1.00
37956;DHT22;23776;51.592;7.180;2023-03-03T06:30:02;2.10;1.00
37956;DHT22;23776;51.592;7.180;2023-03-03T06:32:28;2.20;1.00
37956;DHT22;23776;51.592;7.180;2023-03-03T06:34:53;2.20;1.00
37956;DHT22;23776;51.592;7.180;2023-03-03T06:37:19;2.20;1.00
37956;DHT22;23776;51.592;7.180;2023-03-03T06:39:45;2.20;1.00
37956;DHT22;23776;51.592;7.180;2023-03-03T06:42:10;2.20;1.00
37956;DHT22;23776;51.592;7.180;2023-03-03T06:44:36;2.20;1.00
37956;DHT22;23776;51.592;7.180;2023-03-03T06:47:01;2.30;1.00
37956;DHT22;23776;51.592;7.180;2023-03-03T06:49:27;2.30;1.00
37956;DHT22;23776;51.592;7.180;2023-03-03T06:51:53;2.30;1.00
37956;DHT22;23776;51.592;7.180;2023-03-03T06:54:23;2.30;1.00
37956;DHT22;23776;51.592;7.180;2023-03-03T06:56:54;2.30;1.00
37956;DHT22;23776;51.592;7.180;2023-03-03T06:59:21;2.20;1.00
37956;DHT22;23776;51.592;7.180;2023-03-03T07:01:48;2.30;1.00
37956;DHT22;23776;51.592;7.180;2023-03-03T07:04:27;2.20;1.00
37956;DHT22;23776;51.592;7.180;2023-03-03T07:06:54;2.30;1.00
37956;DHT22;23776;51.592;7.180;2023-03-03T07:09:31;2.30;1.00
37956;DHT22;23776;51.592;7.180;2023-03-03T07:12:01;2.50;1.00
37956;DHT22;23776;51.592;7.180;2023-03-03T07:14:31;2.50;1.00
37956;DHT22;23776;51.592;7.180;2023-03-03T07:16:59;2.50;1.00
37956;DHT22;23776;51.592;7.180;2023-03-03T07:19:35;2.50;1.00
37956;DHT22;23776;51.592;7.180;2023-03-03T07:22:17;2.50;1.00
37956;DHT22;23776;51.592;7.180;2023-03-03T07:24:47;2.40;1.00
37956;DHT22;23776;51.592;7.180;2023-03-03T07:27:22;2.40;1.00
37956;DHT22;23776;51.592;7.180;2023-03-03T07:29:51;2.40;1.00
37956;DHT22;23776;51.592;7.180;2023-03-03T07:34:57;2.50;1.00
37956;DHT22;23776;51.592;7.180;2023-03-03T07:37:36;2.60;1.00
37956;DHT22;23776;51.592;7.180;2023-03-03T07:40:47;2.70;1.00
37956;DHT22;23776;51.592;7.180;2023-03-03T07:43:30;2.60;1.00
37956;DHT22;23776;51.592;7.180;2023-03-03T07:48:41;2.60;1.00
37956;DHT22;23776;51.592;7.180;2023-03-03T07:53:53;2.50;1.00
37956;DHT22;23776;51.592;7.180;2023-03-03T07:58:47;2.60;1.00
37956;DHT22;23776;51.592;7.180;2023-03-03T08:01:36;2.60;1.00
37956;DHT22;23776;51.592;7.180;2023-03-03T08:04:23;2.50;1.00
37956;DHT22;23776;51.592;7.180;2023-03-03T08:06:59;2.60;1.00
37956;DHT22;23776;51.592;7.180;2023-03-03T08:14:53;2.80;1.00
37956;DHT22;23776;51.592;7.180;2023-03-03T08:17:22;2.80;1.00
37956;DHT22;23776;51.592;7.180;2023-03-03T08:19:49;2.80;1.00
37956;DHT22;23776;51.592;7.180;2023-03-03T08:22:28;2.90;1.00
37956;DHT22;23776;51.592;7.180;2023-03-03T08:24:55;2.90;1.00
37956;DHT22;23776;51.592;7.180;2023-03-03T08:27:21;2.90;1.00
37956;DHT22;23776;51.592;7.180;2023-03-03T08:29:46;4.70;1.00
37956;DHT22;23776;51.592;7.180;2023-03-03T08:32:14;3.00;1.00
37956;DHT22;23776;51.592;7.180;2023-03-03T08:34:40;3.00;1.00
37956;DHT22;23776;51.592;7.180;2023-03-03T08:37:05;3.00;1.00
37956;DHT22;23776;51.592;7.180;2023-03-03T08:39:31;3.10;1.00
37956;DHT22;23776;51.592;7.180;2023-03-03T08:41:57;3.10;1.00
37956;DHT22;23776;51.592;7.180;2023-03-03T08:44:23;3.20;1.00
37956;DHT22;23776;51.592;7.180;2023-03-03T08:46:48;3.10;1.00
37956;DHT22;23776;51.592;7.180;2023-03-03T08:49:14;3.20;1.00
37956;DHT22;23776;51.592;7.180;2023-03-03T08:51:40;3.20;1.00
37956;DHT22;23776;51.592;7.180;2023-03-03T08:54:06;3.10;1.00
37956;DHT22;23776;51.592;7.180;2023-03-03T08:56:31;3.10;1.00
37956;DHT22;23776;51.592;7.180;2023-03-03T08:58:57;3.10;1.00
37956;DHT22;23776;51.592;7.180;2023-03-03T09:01:22;3.20;1.00
37956;DHT22;23776;51.592;7.180;2023-03-03T09:03:48;3.20;99.90
37956;DHT22;23776;51.592;7.180;2023-03-03T09:06:14;3.30;1.00
37956;DHT22;23776;51.592;7.180;2023-03-03T09:08:39;3.30;99.90
37956;DHT22;23776;51.592;7.180;2023-03-03T09:11:12;3.30;99.90
37956;DHT22;23776;51.592;7.180;2023-03-03T09:13:38;3.40;99.90
37956;DHT22;23776;51.592;7.180;2023-03-03T09:16:13;3.40;99.90
37956;DHT22;23776;51.592;7.180;2023-03-03T09:18:39;3.50;99.90
37956;DHT22;23776;51.592;7.180;2023-03-03T09:21:21;3.50;99.90
37956;DHT22;23776;51.592;7.180;2023-03-03T09:23:58;3.60;99.90
37956;DHT22;23776;51.592;7.180;2023-03-03T09:28:53;3.50;99.90
37956;DHT22;23776;51.592;7.180;2023-03-03T09:31:26;3.50;99.90
37956;DHT22;23776;51.592;7.180;2023-03-03T09:33:52;3.50;99.90
37956;DHT22;23776;51.592;7.180;2023-03-03T09:36:37;3.50;99.90
37956;DHT22;23776;51.592;7.180;2023-03-03T09:39:24;3.60;99.90
37956;DHT22;23776;51.592;7.180;2023-03-03T09:53:09;3.80;99.90
37956;DHT22;23776;51.592;7.180;2023-03-03T09:55:56;3.90;99.90
37956;DHT22;23776;51.592;7.180;2023-03-03T10:01:44;3.90;28.70
37956;DHT22;23776;51.592;7.180;2023-03-03T10:18:00;4.10;1.00
37956;DHT22;23776;51.592;7.180;2023-03-03T10:20:43;4.00;99.90
37956;DHT22;23776;51.592;7.180;2023-03-03T10:29:33;4.20;99.90
37956;DHT22;23776;51.592;7.180;2023-03-03T10:35:13;4.30;99.90
37956;DHT22;23776;51.592;7.180;2023-03-03T10:40:53;4.30;99.90
37956;DHT22;23776;51.592;7.180;2023-03-03T10:43:37;4.30;99.90
37956;DHT22;23776;51.592;7.180;2023-03-03T10:46:22;4.40;99.90
37956;DHT22;23776;51.592;7.180;2023-03-03T10:57:02;4.70;99.90
37956;DHT22;23776;51.592;7.180;2023-03-03T11:03:12;4.70;24.80
37956;DHT22;23776;51.592;7.180;2023-03-03T11:08:59;4.70;1.00
37956;DHT22;23776;51.592;7.180;2023-03-03T11:14:21;4.80;1.00
37956;DHT22;23776;51.592;7.180;2023-03-03T11:19:43;4.90;1.00
37956;DHT22;23776;51.592;7.180;2023-03-03T11:24:58;5.00;99.90
37956;DHT22;23776;51.592;7.180;2023-03-03T11:30:38;5.10;99.90
37956;DHT22;23776;51.592;7.180;2023-03-03T11:33:22;5.20;99.90
37956;DHT22;23776;51.592;7.180;2023-03-03T11:39:03;5.30;1.00
37956;DHT22;23776;51.592;7.180;2023-03-03T11:52:35;5.50;1.00
37956;DHT22;23776;51.592;7.180;2023-03-03T11:55:25;5.60;1.00
37956;DHT22;23776;51.592;7.180;2023-03-03T11:58:28;5.60;1.00
37956;DHT22;23776;51.592;7.180;2023-03-03T12:23:45;6.60;20.80
37956;DHT22;23776;51.592;7.180;2023-03-03T12:26:23;6.70;99.90
37956;DHT22;23776;51.592;7.180;2023-03-03T12:29:08;6.70;99.90
37956;DHT22;23776;51.592;7.180;2023-03-03T12:34:37;6.60;1.00
37956;DHT22;23776;51.592;7.180;2023-03-03T12:37:18;6.60;1.00
37956;DHT22;23776;51.592;7.180;2023-03-03T12:39:52;6.80;1.00
37956;DHT22;23776;51.592;7.180;2023-03-03T12:59:03;7.30;2.70
37956;DHT22;23776;51.592;7.180;2023-03-03T13:04:39;9.80;1.00
37956;DHT22;23776;51.592;7.180;2023-03-03T13:07:17;9.90;1.00
37956;DHT22;23776;51.592;7.180;2023-03-03T13:13:02;10.80;99.90
37956;DHT22;23776;51.592;7.180;2023-03-03T13:15:38;10.90;74.50
37956;DHT22;23776;51.592;7.180;2023-03-03T13:18:28;10.90;29.80
37956;DHT22;23776;51.592;7.180;2023-03-03T13:21:08;11.40;28.80
37956;DHT22;23776;51.592;7.180;2023-03-03T13:24:04;11.70;1.00
37956;DHT22;23776;51.592;7.180;2023-03-03T13:26:46;12.00;1.00
37956;DHT22;23776;51.592;7.180;2023-03-03T13:29:36;12.20;1.00
37956;DHT22;23776;51.592;7.180;2023-03-03T13:32:20;12.20;1.00
37956;DHT22;23776;51.592;7.180;2023-03-03T13:34:58;11.80;1.00
37956;DHT22;23776;51.592;7.180;2023-03-03T13:37:35;11.70;1.00
37956;DHT22;23776;51.592;7.180;2023-03-03T13:42:44;11.80;1.00
37956;DHT22;23776;51.592;7.180;2023-03-03T13:45:29;12.20;1.00
37956;DHT22;23776;51.592;7.180;2023-03-03T13:48:07;12.50;1.00
37956;DHT22;23776;51.592;7.180;2023-03-03T13:50:46;14.00;1.00
37956;DHT22;23776;51.592;7.180;2023-03-03T13:56:20;12.60;1.00
37956;DHT22;23776;51.592;7.180;2023-03-03T14:05:03;12.10;1.00
37956;DHT22;23776;51.592;7.180;2023-03-03T14:07:56;12.00;1.00
37956;DHT22;23776;51.592;7.180;2023-03-03T14:10:28;11.70;1.00
37956;DHT22;23776;51.592;7.180;2023-03-03T14:13:22;11.60;1.00
37956;DHT22;23776;51.592;7.180;2023-03-03T14:15:55;11.60;1.00
37956;DHT22;23776;51.592;7.180;2023-03-03T14:21:12;11.90;1.00
37956;DHT22;23776;51.592;7.180;2023-03-03T14:26:16;12.10;1.00
37956;DHT22;23776;51.592;7.180;2023-03-03T14:28:47;12.10;99.90
37956;DHT22;23776;51.592;7.180;2023-03-03T14:31:23;11.90;99.90
37956;DHT22;23776;51.592;7.180;2023-03-03T14:34:01;11.90;99.90
37956;DHT22;23776;51.592;7.180;2023-03-03T14:36:31;13.10;1.00
37956;DHT22;23776;51.592;7.180;2023-03-03T14:38:57;12.10;99.90
37956;DHT22;23776;51.592;7.180;2023-03-03T14:41:39;12.20;1.00
37956;DHT22;23776;51.592;7.180;2023-03-03T14:49:35;12.70;99.90
37956;DHT22;23776;51.592;7.180;2023-03-03T14:54:54;12.70;99.90
37956;DHT22;23776;51.592;7.180;2023-03-03T15:03:16;12.80;99.90
37956;DHT22;23776;51.592;7.180;2023-03-03T15:05:54;12.70;99.90
37956;DHT22;23776;51.592;7.180;2023-03-03T15:08:32;12.50;99.90
37956;DHT22;23776;51.592;7.180;2023-03-03T15:11:13;12.10;99.90
37956;DHT22;23776;51.592;7.180;2023-03-03T15:13:42;12.00;99.90
37956;DHT22;23776;51.592;7.180;2023-03-03T15:16:11;11.90;99.90
37956;DHT22;23776;51.592;7.180;2023-03-03T15:19:16;11.70;99.90
37956;DHT22;23776;51.592;7.180;2023-03-03T15:22:13;11.70;99.90
37956;DHT22;23776;51.592;7.180;2023-03-03T15:27:44;11.40;1.00
37956;DHT22;23776;51.592;7.180;2023-03-03T15:30:40;11.20;1.00
37956;DHT22;23776;51.592;7.180;2023-03-03T15:33:24;10.90;1.00
37956;DHT22;23776;51.592;7.180;2023-03-03T15:39:02;10.60;1.00
37956;DHT22;23776;51.592;7.180;2023-03-03T15:41:42;10.40;1.00
37956;DHT22;23776;51.592;7.180;2023-03-03T15:58:19;9.80;17.10
37956;DHT22;23776;51.592;7.180;2023-03-03T16:01:08;9.60;80.20
37956;DHT22;23776;51.592;7.180;2023-03-03T16:09:04;9.20;99.90
37956;DHT22;23776;51.592;7.180;2023-03-03T16:17:24;8.90;99.90
37956;DHT22;23776;51.592;7.180;2023-03-03T16:25:53;8.40;99.90
37956;DHT22;23776;51.592;7.180;2023-03-03T16:28:34;8.30;1.00
37956;DHT22;23776;51.592;7.180;2023-03-03T16:31:33;8.20;1.00
37956;DHT22;23776;51.592;7.180;2023-03-03T16:34:19;8.00;1.00
37956;DHT22;23776;51.592;7.180;2023-03-03T16:37:20;7.90;1.00
37956;DHT22;23776;51.592;7.180;2023-03-03T16:40:17;7.70;1.00
37956;DHT22;23776;51.592;7.180;2023-03-03T16:42:47;7.70;55.80
37956;DHT22;23776;51.592;7.180;2023-03-03T16:54:15;7.30;1.00
37956;DHT22;23776;51.592;7.180;2023-03-03T16:56:47;7.20;1.00
37956;DHT22;23776;51.592;7.180;2023-03-03T17:10:28;6.50;1.00
37956;DHT22;23776;51.592;7.180;2023-03-03T17:15:59;6.40;99.90
37956;DHT22;23776;51.592;7.180;2023-03-03T17:18:32;6.40;99.90
37956;DHT22;23776;51.592;7.180;2023-03-03T17:21:01;6.30;1.00
37956;DHT22;23776;51.592;7.180;2023-03-03T17:23:34;6.20;48.70
37956;DHT22;23776;51.592;7.180;2023-03-03T17:26:22;6.10;99.90
37956;DHT22;23776;51.592;7.180;2023-03-03T17:32:23;5.80;99.90
37956;DHT22;23776;51.592;7.180;2023-03-03T17:40:24;5.70;99.90
37956;DHT22;23776;51.592;7.180;2023-03-03T17:42:58;5.70;99.90
37956;DHT22;23776;51.592;7.180;2023-03-03T17:45:35;5.70;1.00
37956;DHT22;23776;51.592;7.180;2023-03-03T17:53:46;5.60;99.90
37956;DHT22;23776;51.592;7.180;2023-03-03T17:59:40;5.30;99.90
37956;DHT22;23776;51.592;7.180;2023-03-03T18:13:23;5.20;99.90
37956;DHT22;23776;51.592;7.180;2023-03-03T18:16:06;5.30;99.90
37956;DHT22;23776;51.592;7.180;2023-03-03T18:21:21;5.30;99.90
37956;DHT22;23776;51.592;7.180;2023-03-03T18:23:48;5.30;59.00
37956;DHT22;23776;51.592;7.180;2023-03-03T18:36:55;5.40;6.20
37956;DHT22;23776;51.592;7.180;2023-03-03T18:39:46;5.40;50.90
37956;DHT22;23776;51.592;7.180;2023-03-03T18:44:45;5.60;99.90
37956;DHT22;23776;51.592;7.180;2023-03-03T18:47:12;5.60;99.90
37956;DHT22;23776;51.592;7.180;2023-03-03T18:50:14;5.70;1.00
37956;DHT22;23776;51.592;7.180;2023-03-03T18:53:20;5.70;1.00
37956;DHT22;23776;51.592;7.180;2023-03-03T18:55:58;5.60;99.90
37956;DHT22;23776;51.592;7.180;2023-03-03T19:00:57;6.90;99.90
37956;DHT22;23776;51.592;7.180;2023-03-03T19:03:28;5.70;99.90
37956;DHT22;23776;51.592;7.180;2023-03-03T19:05:55;5.70;74.50
37956;DHT22;23776;51.592;7.180;2023-03-03T19:16:57;5.70;99.90
37956;DHT22;23776;51.592;7.180;2023-03-03T19:19:28;5.70;99.90
37956;DHT22;23776;51.592;7.180;2023-03-03T19:25:46;5.70;99.90
37956;DHT22;23776;51.592;7.180;2023-03-03T19:31:03;5.50;1.00
37956;DHT22;23776;51.592;7.180;2023-03-03T19:47:43;5.20;1.00
37956;DHT22;23776;51.592;7.180;2023-03-03T19:50:33;5.40;1.00
37956;DHT22;23776;51.592;7.180;2023-03-03T19:53:16;5.40;99.90
37956;DHT22;23776;51.592;7.180;2023-03-03T19:58:54;5.50;99.90
37956;DHT22;23776;51.592;7.180;2023-03-03T20:10:40;5.50;23.10
37956;DHT22;23776;51.592;7.180;2023-03-03T20:33:08;5.70;1.00
37956;DHT22;23776;51.592;7.180;2023-03-03T20:41:07;5.70;99.90
37956;DHT22;23776;51.592;7.180;2023-03-03T20:46:20;5.60;99.90
37956;DHT22;23776;51.592;7.180;2023-03-03T20:48:51;5.70;99.90
37956;DHT22;23776;51.592;7.180;2023-03-03T20:51:31;5.70;99.90
37956;DHT22;23776;51.592;7.180;2023-03-03T20:54:15;5.70;99.90
37956;DHT22;23776;51.592;7.180;2023-03-03T21:02:18;5.40;46.90
37956;DHT22;23776;51.592;7.180;2023-03-03T21:04:45;5.50;99.90
37956;DHT22;23776;51.592;7.180;2023-03-03T21:07:25;5.50;99.90
37956;DHT22;23776;51.592;7.180;2023-03-03T21:10:12;5.60;99.90
37956;DHT22;23776;51.592;7.180;2023-03-03T21:12:39;5.60;99.90
37956;DHT22;23776;51.592;7.180;2023-03-03T21:15:30;5.70;1.00
37956;DHT22;23776;51.592;7.180;2023-03-03T21:17:57;5.70;1.00
37956;DHT22;23776;51.592;7.180;2023-03-03T21:22:49;5.60;1.00
37956;DHT22;23776;51.592;7.180;2023-03-03T21:28:28;5.50;1.00
37956;DHT22;23776;51.592;7.180;2023-03-03T21:31:14;5.50;1.00
37956;DHT22;23776;51.592;7.180;2023-03-03T21:33:42;5.50;1.00
37956;DHT22;23776;51.592;7.180;2023-03-03T21:36:09;5.60;99.90
37956;DHT22;23776;51.592;7.180;2023-03-03T21:38:37;5.60;99.90
37956;DHT22;23776;51.592;7.180;2023-03-03T21:41:05;5.60;1.00
37956;DHT22;23776;51.592;7.180;2023-03-03T21:43:43;5.70;99.90
37956;DHT22;23776;51.592;7.180;2023-03-03T21:46:09;5.70;1.00
37956;DHT22;23776;51.592;7.180;2023-03-03T21:48:38;5.80;99.90
37956;DHT22;23776;51.592;7.180;2023-03-03T21:51:03;5.80;99.90
37956;DHT22;23776;51.592;7.180;2023-03-03T21:53:29;5.80;1.00
37956;DHT22;23776;51.592;7.180;2023-03-03T21:55:55;5.80;1.00
37956;DHT22;23776;51.592;7.180;2023-03-03T21:58:20;5.90;1.00
37956;DHT22;23776;51.592;7.180;2023-03-03T22:00:46;5.90;99.90
37956;DHT22;23776;51.592;7.180;2023-03-03T22:03:12;6.00;99.90
37956;DHT22;23776;51.592;7.180;2023-03-03T22:05:39;4.20;89.20
37956;DHT22;23776;51.592;7.180;2023-03-03T22:08:05;6.00;37.30
37956;DHT22;23776;51.592;7.180;2023-03-03T22:10:31;6.00;99.90
37956;DHT22;23776;51.592;7.180;2023-03-03T22:12:56;6.00;99.90
37956;DHT22;23776;51.592;7.180;2023-03-03T22:15:22;6.00;99.90
37956;DHT22;23776;51.592;7.180;2023-03-03T22:17:47;6.10;99.90
37956;DHT22;23776;51.592;7.180;2023-03-03T22:20:13;6.10;99.90
37956;DHT22;23776;51.592;7.180;2023-03-03T22:22:45;6.10;99.90
37956;DHT22;23776;51.592;7.180;2023-03-03T22:25:12;6.10;1.00
37956;DHT22;23776;51.592;7.180;2023-03-03T22:27:37;6.10;1.00
37956;DHT22;23776;51.592;7.180;2023-03-03T22:30:04;6.10;10.60
37956;DHT22;23776;51.592;7.180;2023-03-03T22:32:29;6.10;99.90
37956;DHT22;23776;51.592;7.180;2023-03-03T22:34:55;6.10;99.90
37956;DHT22;23776;51.592;7.180;2023-03-03T22:37:21;6.10;99.90
37956;DHT22;23776;51.592;7.180;2023-03-03T22:39:46;6.10;99.90
37956;DHT22;23776;51.592;7.180;2023-03-03T22:42:12;6.00;99.90
37956;DHT22;23776;51.592;7.180;2023-03-03T22:44:37;6.00;99.90
37956;DHT22;23776;51.592;7.180;2023-03-03T22:47:04;6.00;99.90
37956;DHT22;23776;51.592;7.180;2023-03-03T22:49:30;6.10;99.90
37956;DHT22;23776;51.592;7.180;2023-03-03T22:51:56;6.00;99.90
37956;DHT22;23776;51.592;7.180;2023-03-03T22:54:23;6.00;99.90
37956;DHT22;23776;51.592;7.180;2023-03-03T22:56:49;6.10;99.90
37956;DHT22;23776;51.592;7.180;2023-03-03T22:59:14;6.10;99.90
37956;DHT22;23776;51.592;7.180;2023-03-03T23:01:40;6.10;1.00
37956;DHT22;23776;51.592;7.180;2023-03-03T23:06:32;6.10;1.00